Time;durP1;ratioP1;P1;durP2;ratioP2;P2;SDS_P1;SDS_P2;PMS_P1;PMS_P2;Temp;Humidity;BMP_temperature;BMP_pressure;BME280_temperature;BME280_humidity;BME280_pressure;Samples;Min_cycle;Max_cycle;Signal;HPM_P1;HPM_P2
2023/03/25 00:00:32;;;;;;;3.83;0.80;;;9.50;99.90;;;;;;5057686;28;20180;-81
2023/03/25 00:02:57;;;;;;;2.93;0.67;;;9.50;99.90;;;;;;5059815;28;20256;-81
2023/03/25 00:05:23;;;;;;;4.67;0.60;;;9.50;99.90;;;;;;5060096;28;20172;-81
2023/03/25 00:07:51;;;;;;;3.13;1.00;;;9.50;99.90;;;;;;5058511;28;20184;-81
2023/03/25 00:10:17;;;;;;;2.53;0.73;;;9.50;99.90;;;;;;5059821;28;20171;-81
2023/03/25 00:12:42;;;;;;;1.43;0.70;;;9.50;99.90;;;;;;5062143;28;20598;-81
2023/03/25 00:15:09;;;;;;;2.27;0.67;;;9.50;99.90;;;;;;5071226;28;20213;-81
2023/03/25 00:17:37;;;;;;;2.53;0.97;;;9.40;99.90;;;;;;5070655;28;20194;-81
2023/03/25 00:20:09;;;;;;;5.00;0.80;;;9.40;99.90;;;;;;5060434;28;20179;-82
2023/03/25 00:22:39;;;;;;;2.17;0.60;;;9.40;99.90;;;;;;5056116;28;20191;-81
2023/03/25 00:25:07;;;;;;;2.23;0.80;;;9.40;99.90;;;;;;5055157;28;20191;-82
2023/03/25 00:27:32;;;;;;;3.57;0.90;;;9.40;99.90;;;;;;5054790;28;20214;-81
2023/03/25 00:29:58;;;;;;;4.83;1.10;;;9.40;99.90;;;;;;5057698;28;20180;-81
2023/03/25 00:32:23;;;;;;;4.77;0.80;;;9.40;99.90;;;;;;5058003;28;20210;-81
2023/03/25 00:34:50;;;;;;;4.63;0.70;;;9.40;99.90;;;;;;5056346;28;20180;-82
2023/03/25 00:37:16;;;;;;;2.73;0.80;;;9.40;99.90;;;;;;5056847;28;20183;-81
2023/03/25 00:39:42;;;;;;;1.93;0.77;;;9.40;99.90;;;;;;5056719;28;20171;-81
2023/03/25 00:42:10;;;;;;;2.40;0.80;;;9.40;99.90;;;;;;5055284;28;20397;-81
2023/03/25 00:44:35;;;;;;;2.57;1.00;;;9.30;99.90;;;;;;5055019;28;20191;-81
2023/03/25 00:47:01;;;;;;;3.73;0.83;;;9.40;99.90;;;;;;5056943;28;20171;-80
2023/03/25 00:49:27;;;;;;;5.73;0.83;;;9.40;99.90;;;;;;5056071;28;20215;-81
2023/03/25 00:51:54;;;;;;;3.13;0.90;;;9.40;99.90;;;;;;5056115;28;20270;-82
2023/03/25 00:54:21;;;;;;;2.60;0.70;;;9.40;99.90;;;;;;5058653;28;20182;-82
2023/03/25 00:56:47;;;;;;;3.90;1.03;;;9.40;99.90;;;;;;5056103;28;20203;-81
2023/03/25 00:59:12;;;;;;;3.07;1.10;;;9.40;99.90;;;;;;5058397;28;20186;-82
2023/03/25 01:01:38;;;;;;;2.60;0.73;;;9.40;99.90;;;;;;5057921;28;20594;-81
2023/03/25 01:04:11;;;;;;;4.63;1.07;;;9.40;99.90;;;;;;5058304;28;20168;-81
2023/03/25 01:06:42;;;;;;;2.33;0.80;;;9.40;99.90;;;;;;5057226;28;20175;-81
2023/03/25 01:09:12;;;;;;;1.13;0.67;;;9.40;99.90;;;;;;5057466;28;20158;-81
2023/03/25 01:11:39;;;;;;;2.43;0.87;;;9.40;99.90;;;;;;5055346;28;20216;-81
2023/03/25 01:14:08;;;;;;;3.10;1.93;;;9.40;99.90;;;;;;5057154;28;20543;-81
2023/03/25 01:16:34;;;;;;;6.33;1.07;;;9.40;99.90;;;;;;5056089;28;20183;-82
2023/03/25 01:19:00;;;;;;;3.83;1.20;;;9.50;99.90;;;;;;5057444;28;20233;-82
2023/03/25 01:21:25;;;;;;;5.50;1.20;;;9.40;99.90;;;;;;5055374;28;20294;-81
2023/03/25 01:23:51;;;;;;;2.90;0.83;;;9.40;99.90;;;;;;5055988;28;20666;-82
2023/03/25 01:26:17;;;;;;;6.47;1.10;;;9.40;99.90;;;;;;5055691;28;20203;-81
2023/03/25 01:28:43;;;;;;;3.90;1.10;;;9.40;99.90;;;;;;5057417;28;20210;-82
2023/03/25 01:31:11;;;;;;;2.73;0.80;;;9.40;99.90;;;;;;5055968;28;20229;-81
2023/03/25 01:33:36;;;;;;;3.63;0.87;;;9.50;99.90;;;;;;5055126;28;20176;-82
2023/03/25 01:36:03;;;;;;;4.50;1.00;;;9.50;99.90;;;;;;5055617;28;20321;-82
2023/03/25 01:38:29;;;;;;;3.50;1.10;;;9.50;99.90;;;;;;5054839;28;20180;-81
2023/03/25 01:40:55;;;;;;;2.43;0.63;;;9.50;99.90;;;;;;5056352;28;20174;-81
2023/03/25 01:43:22;;;;;;;1.03;0.73;;;9.50;99.90;;;;;;5055397;28;20219;-81
2023/03/25 01:45:50;;;;;;;2.70;0.70;;;9.50;92.60;;;;;;5054963;28;20175;-82
2023/03/25 01:48:26;;;;;;;2.00;0.80;;;9.50;72.40;;;;;;5056460;28;20179;-81
2023/03/25 01:50:56;;;;;;;3.43;0.97;;;9.60;22.20;;;;;;5054994;28;20199;-81
2023/03/25 01:53:23;;;;;;;6.17;1.00;;;9.60;12.90;;;;;;5056786;28;20180;-81
2023/03/25 01:55:51;;;;;;;3.83;0.90;;;9.60;1.00;;;;;;5054966;28;20246;-81
2023/03/25 01:58:18;;;;;;;3.40;1.10;;;9.60;1.00;;;;;;5056694;28;20172;-81
2023/03/25 02:00:44;;;;;;;3.17;0.77;;;9.60;1.00;;;;;;5057018;28;20179;-81
2023/03/25 02:03:11;;;;;;;2.70;1.17;;;9.60;1.00;;;;;;5056527;28;20195;-81
2023/03/25 02:06:02;;;;;;;3.50;0.90;;;9.60;1.00;;;;;;5056801;28;20531;-81
2023/03/25 02:08:31;;;;;;;4.77;1.10;;;9.70;1.00;;;;;;5055028;28;20718;-80
2023/03/25 02:10:57;;;;;;;3.67;1.00;;;9.60;1.00;;;;;;5054946;28;20293;-82
2023/03/25 02:13:23;;;;;;;4.83;1.20;;;9.70;1.00;;;;;;5055723;28;20167;-82
2023/03/25 02:16:07;;;;;;;2.77;0.87;;;9.70;1.00;;;;;;5053749;28;20176;-82
2023/03/25 02:19:00;;;;;;;4.27;1.03;;;9.60;1.00;;;;;;5054750;28;20194;-80
2023/03/25 02:22:10;;;;;;;5.43;0.90;;;9.60;1.00;;;;;;5055175;28;20241;-82
2023/03/25 02:25:10;;;;;;;6.13;0.83;;;9.60;1.00;;;;;;5054874;28;20243;-81
2023/03/25 02:28:02;;;;;;;3.53;1.30;;;9.60;1.00;;;;;;5055439;28;20642;-81
2023/03/25 02:31:05;;;;;;;1.97;0.80;;;9.50;9.20;;;;;;5054956;28;20174;-81
2023/03/25 02:33:36;;;;;;;2.23;0.87;;;9.60;1.00;;;;;;5056150;28;20236;-80
2023/03/25 02:36:29;;;;;;;4.70;1.10;;;9.50;6.20;;;;;;5057710;28;20171;-81
2023/03/25 02:39:44;;;;;;;3.30;0.80;;;9.50;1.00;;;;;;5057875;28;20172;-82
2023/03/25 02:42:52;;;;;;;3.60;0.73;;;9.50;15.80;;;;;;5038264;28;20239;-82
2023/03/25 02:45:28;;;;;;;2.77;0.93;;;9.50;1.00;;;;;;5029670;28;20674;-80
2023/03/25 02:47:59;;;;;;;2.93;0.90;;;9.50;1.00;;;;;;5060106;28;20163;-81
2023/03/25 02:50:36;;;;;;;1.70;0.70;;;9.50;1.00;;;;;;5059270;28;20171;-82
2023/03/25 02:53:07;;;;;;;1.80;0.63;;;9.50;1.00;;;;;;5059166;28;20203;-80
2023/03/25 02:55:34;;;;;;;0.97;0.70;;;9.40;34.30;;;;;;5058976;28;20156;-81
2023/03/25 02:58:05;;;;;;;3.10;0.60;;;9.50;1.00;;;;;;5059174;28;20529;-81
2023/03/25 03:00:31;;;;;;;5.10;1.03;;;9.40;1.00;;;;;;5059466;28;20175;-80
2023/03/25 03:03:00;;;;;;;3.17;0.73;;;9.40;1.00;;;;;;5059410;28;20187;-81
2023/03/25 03:05:28;;;;;;;3.07;0.87;;;9.50;1.00;;;;;;5059389;28;20172;-80
2023/03/25 03:08:02;;;;;;;2.80;0.80;;;9.40;1.00;;;;;;5059525;28;20251;-81
2023/03/25 03:10:49;;;;;;;4.33;0.80;;;9.40;4.80;;;;;;5058783;28;20183;-81
2023/03/25 03:13:30;;;;;;;2.17;0.80;;;9.40;1.00;;;;;;5059427;28;20247;-80
2023/03/25 03:16:01;;;;;;;2.20;1.23;;;9.40;5.90;;;;;;5059490;28;20159;-81
2023/03/25 03:18:43;;;;;;;3.13;1.03;;;9.30;54.40;;;;;;5057612;28;20628;-80
2023/03/25 03:21:22;;;;;;;4.17;0.77;;;9.40;36.50;;;;;;5059192;28;20148;-81
2023/03/25 03:24:01;;;;;;;2.37;0.83;;;9.30;24.40;;;;;;5058769;28;20155;-81
2023/03/25 03:26:43;;;;;;;7.17;1.20;;;9.30;54.80;;;;;;5059172;28;20166;-83
2023/03/25 03:29:15;;;;;;;1.93;1.00;;;9.30;49.20;;;;;;5057810;28;20693;-81
2023/03/25 03:31:59;;;;;;;2.60;0.90;;;9.30;31.80;;;;;;5056385;28;20211;-79
2023/03/25 03:34:33;;;;;;;3.60;1.10;;;9.30;56.70;;;;;;5059040;28;20194;-79
2023/03/25 03:37:01;;;;;;;2.17;0.90;;;9.30;56.40;;;;;;5057336;28;20200;-80
2023/03/25 03:39:32;;;;;;;3.80;1.00;;;9.30;88.40;;;;;;5058079;28;20175;-80
2023/03/25 03:42:19;;;;;;;1.77;1.03;;;9.30;99.90;;;;;;5057605;28;20253;-80
2023/03/25 03:44:49;;;;;;;3.00;1.20;;;9.20;99.90;;;;;;5055922;28;20156;-80
2023/03/25 03:47:28;;;;;;;5.00;1.07;;;9.20;99.90;;;;;;5055358;28;20171;-81
2023/03/25 03:50:05;;;;;;;2.80;1.00;;;9.30;99.90;;;;;;5056288;28;20180;-80
2023/03/25 03:52:39;;;;;;;4.73;1.27;;;9.20;99.90;;;;;;5057892;28;20241;-81
2023/03/25 03:55:39;;;;;;;3.30;1.10;;;9.20;99.90;;;;;;5058193;28;20159;-81
2023/03/25 03:58:14;;;;;;;2.73;0.90;;;9.20;99.90;;;;;;5056491;28;20182;-79
2023/03/25 04:01:08;;;;;;;4.77;1.10;;;9.20;92.80;;;;;;5057588;28;20152;-81
2023/03/25 04:03:51;;;;;;;4.17;1.10;;;9.30;69.20;;;;;;5056436;28;20241;-80
2023/03/25 04:06:57;;;;;;;2.90;0.90;;;9.30;56.60;;;;;;5055521;28;20171;-81
2023/03/25 04:09:32;;;;;;;3.40;0.90;;;9.30;93.90;;;;;;5055121;28;20190;-81
2023/03/25 04:12:14;;;;;;;2.83;0.90;;;9.30;29.50;;;;;;5056794;28;20776;-80
2023/03/25 04:14:40;;;;;;;2.23;0.83;;;9.30;37.90;;;;;;5056232;28;20175;-80
2023/03/25 04:17:05;;;;;;;5.87;1.40;;;9.30;65.70;;;;;;5057263;28;20171;-81
2023/03/25 04:19:32;;;;;;;4.23;1.10;;;9.20;99.90;;;;;;5056596;28;20271;-81
2023/03/25 04:22:00;;;;;;;5.30;1.30;;;9.20;99.90;;;;;;5055591;28;20215;-81
2023/03/25 04:24:30;;;;;;;3.47;1.33;;;9.20;99.90;;;;;;5055875;28;20545;-80
2023/03/25 04:26:56;;;;;;;4.50;1.20;;;9.20;99.90;;;;;;5055667;28;20171;-81
2023/03/25 04:29:22;;;;;;;3.00;0.90;;;9.20;99.90;;;;;;5056040;28;20202;-81
2023/03/25 04:31:49;;;;;;;3.53;1.30;;;9.20;99.90;;;;;;5057742;28;20195;-81
2023/03/25 04:34:14;;;;;;;2.83;0.90;;;9.20;99.90;;;;;;5057520;28;20168;-80
2023/03/25 04:36:43;;;;;;;6.70;1.30;;;9.10;99.90;;;;;;5058161;28;20176;-81
2023/03/25 04:39:12;;;;;;;3.27;1.03;;;9.10;99.90;;;;;;5055973;28;20176;-81
2023/03/25 04:41:38;;;;;;;5.03;1.20;;;9.10;99.90;;;;;;5055784;28;20681;-82
2023/03/25 04:44:06;;;;;;;3.77;0.97;;;9.10;99.90;;;;;;5056081;28;20172;-81
2023/03/25 04:46:33;;;;;;;6.10;1.60;;;9.10;99.90;;;;;;5056432;28;20179;-81
2023/03/25 04:48:59;;;;;;;3.00;0.90;;;9.40;99.90;;;;;;5058205;28;20195;-81
2023/03/25 04:51:25;;;;;;;4.77;1.20;;;9.20;67.10;;;;;;5056184;28;20211;-81
2023/03/25 04:53:51;;;;;;;3.33;1.27;;;9.20;54.00;;;;;;5057511;28;20635;-81
2023/03/25 04:56:18;;;;;;;5.93;1.27;;;9.20;24.40;;;;;;5056421;28;20171;-81
2023/03/25 04:58:45;;;;;;;6.17;1.57;;;9.20;30.80;;;;;;5057131;28;20172;-81
2023/03/25 05:01:23;;;;;;;4.70;1.10;;;9.20;1.00;;;;;;5056066;28;20186;-81
2023/03/25 05:03:49;;;;;;;6.73;1.33;;;9.20;1.00;;;;;;5056713;28;20186;-81
2023/03/25 05:06:16;;;;;;;3.97;0.90;;;9.30;1.00;;;;;;5059895;28;20167;-81
2023/03/25 05:08:42;;;;;;;6.30;1.30;;;9.30;1.00;;;;;;5057908;28;20270;-80
2023/03/25 05:11:07;;;;;;;4.57;1.03;;;9.30;13.90;;;;;;5058285;28;20663;-83
2023/03/25 05:13:33;;;;;;;4.17;0.97;;;9.30;96.00;;;;;;5059266;28;20198;-81
2023/03/25 05:15:59;;;;;;;2.63;0.90;;;9.20;37.60;;;;;;5062808;28;20276;-80
2023/03/25 05:18:25;;;;;;;4.27;1.00;;;9.20;2.10;;;;;;5059617;28;20175;-81
2023/03/25 05:20:52;;;;;;;5.30;1.03;;;9.30;20.40;;;;;;5057585;28;20635;-81
2023/03/25 05:23:18;;;;;;;4.63;1.60;;;9.20;1.90;;;;;;5057648;28;20194;-81
2023/03/25 05:25:46;;;;;;;2.53;1.10;;;9.20;54.10;;;;;;5056349;28;20206;-80
2023/03/25 05:28:12;;;;;;;4.50;1.17;;;9.20;97.40;;;;;;5057901;28;20254;-82
2023/03/25 05:30:40;;;;;;;5.80;1.27;;;9.10;90.10;;;;;;5056225;28;20179;-81
2023/03/25 05:33:07;;;;;;;5.47;1.10;;;9.10;99.90;;;;;;5056003;28;20211;-81
2023/03/25 05:35:32;;;;;;;3.10;0.80;;;9.10;95.00;;;;;;5056541;28;20525;-80
2023/03/25 05:37:58;;;;;;;3.90;0.87;;;9.10;99.90;;;;;;5056203;28;20269;-81
2023/03/25 05:40:25;;;;;;;3.80;1.10;;;9.10;72.60;;;;;;5057229;28;20179;-81
2023/03/25 05:42:53;;;;;;;3.30;1.10;;;9.20;89.90;;;;;;5055824;28;20697;-81
2023/03/25 05:45:19;;;;;;;7.97;1.33;;;9.10;64.70;;;;;;5057447;28;20174;-80
2023/03/25 05:47:44;;;;;;;7.73;1.47;;;9.20;99.90;;;;;;5057820;28;20176;-81
2023/03/25 05:50:10;;;;;;;5.00;1.30;;;9.20;91.60;;;;;;5057674;28;20251;-81
2023/03/25 05:52:36;;;;;;;4.63;1.00;;;9.20;99.90;;;;;;5056344;28;20227;-80
2023/03/25 05:55:02;;;;;;;6.30;1.10;;;9.20;80.30;;;;;;5056422;28;20177;-83
2023/03/25 05:57:28;;;;;;;11.17;1.60;;;9.20;99.90;;;;;;5058824;28;20179;-81
2023/03/25 05:59:54;;;;;;;3.37;0.90;;;9.20;99.90;;;;;;5058491;28;20195;-81
2023/03/25 06:02:20;;;;;;;4.13;1.10;;;9.20;93.20;;;;;;5056992;28;20226;-81
2023/03/25 06:04:49;;;;;;;7.13;1.20;;;9.20;98.80;;;;;;5058363;28;20176;-81
2023/03/25 06:07:21;;;;;;;5.03;1.37;;;9.20;48.30;;;;;;5058530;28;20163;-81
2023/03/25 06:09:48;;;;;;;4.60;0.93;;;9.20;65.30;;;;;;5058413;28;20201;-80
2023/03/25 06:12:19;;;;;;;3.37;0.87;;;9.20;66.70;;;;;;5058146;28;20218;-80
2023/03/25 06:14:46;;;;;;;4.83;1.10;;;9.20;87.30;;;;;;5058421;28;20171;-81
2023/03/25 06:17:12;;;;;;;4.10;0.87;;;9.20;99.90;;;;;;5056669;28;20635;-81
2023/03/25 06:19:38;;;;;;;3.70;1.30;;;9.20;89.60;;;;;;5056907;28;20536;-81
2023/03/25 06:22:08;;;;;;;3.77;1.27;;;9.20;99.90;;;;;;5056799;28;20206;-81
2023/03/25 06:24:37;;;;;;;4.83;1.27;;;9.20;99.90;;;;;;5058345;28;20171;-82
2023/03/25 06:27:05;;;;;;;9.97;1.80;;;9.30;99.90;;;;;;5058753;28;20178;-82
2023/03/25 06:29:33;;;;;;;6.63;1.47;;;9.20;99.90;;;;;;5056879;28;20258;-82
2023/03/25 06:31:58;;;;;;;4.93;1.30;;;9.20;99.90;;;;;;5056632;28;20221;-81
2023/03/25 06:34:24;;;;;;;5.83;1.20;;;9.20;99.90;;;;;;5057000;28;20270;-81
2023/03/25 06:36:52;;;;;;;4.10;1.10;;;9.10;99.90;;;;;;5057174;28;20171;-81
2023/03/25 06:39:19;;;;;;;10.07;1.47;;;9.10;99.90;;;;;;5056457;28;20175;-81
2023/03/25 06:41:44;;;;;;;5.40;1.23;;;9.10;99.90;;;;;;5057331;28;20207;-82
2023/03/25 06:44:10;;;;;;;4.60;1.40;;;9.10;99.90;;;;;;5058668;28;20171;-81
2023/03/25 06:46:36;;;;;;;2.73;1.47;;;9.00;99.90;;;;;;5057088;28;20180;-81
2023/03/25 06:49:01;;;;;;;7.67;1.40;;;9.00;99.90;;;;;;5057757;28;20699;-81
2023/03/25 06:51:27;;;;;;;4.23;1.43;;;9.00;99.90;;;;;;5058626;28;20203;-82
2023/03/25 06:53:53;;;;;;;5.03;1.30;;;8.90;99.90;;;;;;5056893;28;20210;-80
2023/03/25 06:56:18;;;;;;;7.53;1.60;;;9.00;99.90;;;;;;5056913;28;20237;-81
2023/03/25 06:58:44;;;;;;;9.10;1.27;;;9.00;99.90;;;;;;5056827;28;20198;-81
2023/03/25 07:01:10;;;;;;;8.37;1.57;;;9.00;99.90;;;;;;5058637;28;20171;-81
2023/03/25 07:03:36;;;;;;;8.07;1.67;;;9.00;99.90;;;;;;5056399;28;20183;-81
2023/03/25 07:06:04;;;;;;;11.73;1.60;;;9.00;99.90;;;;;;5057695;28;20176;-80
2023/03/25 07:08:30;;;;;;;7.10;1.53;;;9.00;99.90;;;;;;5056841;28;20239;-81
2023/03/25 07:11:04;;;;;;;5.13;1.37;;;9.00;99.90;;;;;;5057483;28;20227;-81
2023/03/25 07:13:30;;;;;;;4.53;1.43;;;9.00;99.90;;;;;;5057448;28;20171;-81
2023/03/25 07:15:57;;;;;;;8.03;1.87;;;9.00;99.90;;;;;;5056799;28;20190;-81
2023/03/25 07:18:23;;;;;;;6.77;1.40;;;9.10;99.90;;;;;;5057832;28;20226;-80
2023/03/25 07:20:48;;;;;;;6.40;1.50;;;9.10;99.90;;;;;;5062140;28;20183;-81
2023/03/25 07:23:14;;;;;;;8.93;1.57;;;9.20;99.90;;;;;;5061942;28;20199;-82
2023/03/25 07:25:40;;;;;;;5.87;1.50;;;9.20;99.90;;;;;;5064384;28;20269;-81
2023/03/25 07:28:06;;;;;;;9.80;1.50;;;9.20;99.90;;;;;;5063814;28;20183;-81
2023/03/25 07:30:31;;;;;;;9.07;1.93;;;9.20;99.90;;;;;;5063895;28;20183;-82
2023/03/25 07:32:57;;;;;;;6.77;1.77;;;9.30;99.90;;;;;;5059960;28;20261;-82
2023/03/25 07:35:23;;;;;;;8.80;1.50;;;9.40;99.90;;;;;;5059059;28;20654;-81
2023/03/25 07:37:48;;;;;;;4.43;1.53;;;9.30;99.90;;;;;;5060256;28;20175;-81
2023/03/25 07:40:14;;;;;;;7.67;1.50;;;9.30;99.90;;;;;;5059559;28;20176;-81
2023/03/25 07:42:40;;;;;;;6.37;1.33;;;9.30;99.90;;;;;;5058378;28;20199;-81
2023/03/25 07:45:06;;;;;;;6.20;1.27;;;9.30;99.90;;;;;;5060207;28;20176;-82
2023/03/25 07:47:31;;;;;;;4.93;1.83;;;9.30;99.90;;;;;;5060275;28;20239;-81
2023/03/25 07:49:57;;;;;;;6.03;1.50;;;9.30;99.90;;;;;;5058801;28;20207;-83
2023/03/25 07:52:22;;;;;;;5.13;1.23;;;9.30;99.90;;;;;;5060192;28;20286;-82
2023/03/25 07:54:48;;;;;;;8.37;1.77;;;9.30;99.90;;;;;;5059665;28;20179;-82
2023/03/25 07:57:14;;;;;;;6.60;1.30;;;9.30;99.90;;;;;;5059313;28;20187;-82
2023/03/25 07:59:40;;;;;;;10.53;1.70;;;9.30;99.90;;;;;;5060397;28;20176;-82
2023/03/25 08:02:05;;;;;;;6.10;1.20;;;9.30;99.90;;;;;;5060034;28;20215;-82
2023/03/25 08:04:31;;;;;;;8.17;1.30;;;9.30;99.90;;;;;;5058337;28;20180;-82
2023/03/25 08:06:56;;;;;;;8.33;1.57;;;9.40;49.90;;;;;;5058293;28;20179;-81
2023/03/25 08:09:23;;;;;;;8.77;1.80;;;9.40;6.20;;;;;;5060810;28;20186;-83
2023/03/25 08:11:50;;;;;;;5.80;1.60;;;9.40;1.00;;;;;;5058403;28;20291;-82
2023/03/25 08:14:15;;;;;;;7.13;1.50;;;9.50;1.00;;;;;;5060520;28;20164;-83
2023/03/25 08:16:41;;;;;;;7.17;1.67;;;9.60;1.00;;;;;;5057987;28;20274;-82
2023/03/25 08:19:06;;;;;;;9.97;1.90;;;9.70;1.00;;;;;;5058141;28;20365;-82
2023/03/25 08:21:32;;;;;;;7.20;2.00;;;9.80;1.00;;;;;;5059234;28;20206;-83
2023/03/25 08:24:01;;;;;;;6.17;1.60;;;9.90;1.00;;;;;;5058435;28;20183;-81
2023/03/25 08:26:27;;;;;;;9.77;1.60;;;9.90;1.00;;;;;;5059186;28;20653;-82
2023/03/25 08:28:56;;;;;;;8.23;1.70;;;9.90;1.00;;;;;;5058323;28;20270;-81
2023/03/25 08:31:29;;;;;;;3.53;1.57;;;10.00;1.00;;;;;;5058303;28;20211;-83
2023/03/25 08:33:56;;;;;;;14.43;2.33;;;10.00;1.00;;;;;;5057984;28;20172;-83
2023/03/25 08:36:22;;;;;;;6.47;1.47;;;10.00;1.00;;;;;;5059852;28;20167;-83
2023/03/25 08:38:48;;;;;;;11.80;1.90;;;10.00;1.00;;;;;;5059705;28;20215;-82
2023/03/25 08:41:14;;;;;;;5.13;1.30;;;10.00;1.00;;;;;;5057810;28;20259;-83
2023/03/25 08:43:40;;;;;;;10.60;1.93;;;10.00;1.00;;;;;;5059183;28;20210;-82
2023/03/25 08:46:05;;;;;;;8.07;1.80;;;10.10;1.00;;;;;;5059470;28;20167;-82
2023/03/25 08:48:31;;;;;;;8.20;1.67;;;10.10;1.00;;;;;;5058844;28;20205;-82
2023/03/25 08:50:57;;;;;;;8.30;1.83;;;10.10;1.00;;;;;;5057827;28;20567;-82
2023/03/25 08:53:23;;;;;;;6.23;1.93;;;10.10;1.00;;;;;;5057341;28;20662;-82
2023/03/25 08:55:53;;;;;;;9.90;2.50;;;10.20;1.00;;;;;;5058739;28;20190;-82
2023/03/25 08:58:19;;;;;;;6.33;1.60;;;10.30;1.00;;;;;;5057469;28;20221;-83
2023/03/25 09:00:45;;;;;;;8.07;1.70;;;10.30;1.00;;;;;;5057335;28;20174;-83
2023/03/25 09:03:11;;;;;;;7.87;1.83;;;10.30;1.00;;;;;;5058168;28;20199;-82
2023/03/25 09:05:38;;;;;;;6.27;1.57;;;10.40;1.00;;;;;;5059017;28;20222;-83
2023/03/25 09:08:04;;;;;;;6.97;1.83;;;10.40;1.00;;;;;;5059233;28;20163;-83
2023/03/25 09:10:30;;;;;;;6.20;1.80;;;10.40;1.00;;;;;;5059138;28;20183;-82
2023/03/25 09:12:56;;;;;;;6.03;1.77;;;10.40;1.00;;;;;;5058830;28;20203;-83
2023/03/25 09:15:22;;;;;;;7.57;1.53;;;10.40;1.00;;;;;;5056816;28;20271;-83
2023/03/25 09:17:47;;;;;;;8.90;1.90;;;10.40;64.40;;;;;;5058183;28;20172;-82
2023/03/25 09:20:13;;;;;;;8.50;1.90;;;10.40;72.30;;;;;;5058774;28;20229;-83
2023/03/25 09:22:40;;;;;;;9.37;1.60;;;10.40;21.60;;;;;;5057256;28;20702;-82
2023/03/25 09:25:07;;;;;;;11.27;2.10;;;10.30;1.00;;;;;;5058588;28;20195;-83
2023/03/25 09:27:33;;;;;;;8.93;1.90;;;10.30;2.50;;;;;;5058530;28;20172;-83
2023/03/25 09:29:58;;;;;;;11.40;2.40;;;10.30;1.00;;;;;;5058218;28;20553;-83
2023/03/25 09:32:24;;;;;;;10.33;2.17;;;10.30;1.00;;;;;;5058261;28;20211;-83
2023/03/25 09:34:50;;;;;;;8.03;1.90;;;10.50;1.00;;;;;;5059821;28;20722;-83
2023/03/25 09:37:16;;;;;;;10.30;2.00;;;10.30;1.00;;;;;;5061065;28;20662;-83
2023/03/25 09:39:42;;;;;;;9.80;1.90;;;10.30;1.00;;;;;;5060725;28;20172;-83
2023/03/25 09:42:26;;;;;;;8.57;1.60;;;10.30;1.00;;;;;;5063408;28;20192;-82
2023/03/25 09:45:13;;;;;;;12.83;2.13;;;10.40;17.10;;;;;;5061532;28;20167;-82
2023/03/25 09:47:47;;;;;;;9.33;1.63;;;10.50;88.50;;;;;;5058390;28;20174;-83
2023/03/25 09:50:15;;;;;;;9.97;1.87;;;10.60;99.90;;;;;;5057963;28;20567;-83
2023/03/25 09:52:47;;;;;;;7.83;1.77;;;10.60;99.90;;;;;;5057079;28;20207;-83
2023/03/25 09:55:21;;;;;;;6.70;1.33;;;10.70;99.90;;;;;;5058095;28;20464;-82
2023/03/25 09:57:49;;;;;;;9.20;1.70;;;10.70;99.90;;;;;;5057427;28;20160;-83
2023/03/25 10:00:24;;;;;;;9.53;2.10;;;10.80;99.90;;;;;;5056463;28;20176;-83
2023/03/25 10:03:05;;;;;;;9.20;1.93;;;10.70;99.90;;;;;;5058453;28;20187;-83
2023/03/25 10:05:49;;;;;;;8.37;1.77;;;10.80;99.90;;;;;;5057508;28;20164;-83
2023/03/25 10:08:44;;;;;;;8.33;2.17;;;10.80;99.90;;;;;;5058589;28;20168;-83
2023/03/25 10:11:35;;;;;;;12.33;1.77;;;10.80;99.90;;;;;;5056507;28;20230;-82
2023/03/25 10:14:25;;;;;;;6.50;1.57;;;10.80;99.90;;;;;;5056710;28;20183;-84
2023/03/25 10:17:19;;;;;;;9.73;2.23;;;10.80;99.90;;;;;;5055394;28;20594;-83
2023/03/25 10:19:57;;;;;;;8.77;2.17;;;10.90;99.90;;;;;;5056730;28;20258;-83
2023/03/25 10:23:10;;;;;;;9.70;2.33;;;10.90;99.90;;;;;;5056481;28;20202;-83
2023/03/25 10:25:38;;;;;;;7.53;1.80;;;11.00;99.90;;;;;;5056181;28;20164;-81
2023/03/25 10:28:05;;;;;;;11.30;2.03;;;11.10;99.90;;;;;;5057593;28;20176;-83
2023/03/25 10:30:42;;;;;;;8.53;1.53;;;11.00;99.90;;;;;;5055332;28;20175;-83
2023/03/25 10:33:17;;;;;;;8.30;1.60;;;11.20;99.90;;;;;;5056144;28;20238;-83
2023/03/25 10:35:46;;;;;;;6.03;1.50;;;11.20;99.90;;;;;;5057676;28;20221;-83
2023/03/25 10:38:19;;;;;;;8.63;1.90;;;11.30;99.90;;;;;;5056593;28;20178;-82
2023/03/25 10:40:48;;;;;;;5.10;1.40;;;11.20;99.90;;;;;;5056339;28;20207;-82
2023/03/25 10:43:24;;;;;;;6.00;1.73;;;11.20;99.90;;;;;;5055381;28;20192;-83
2023/03/25 10:45:54;;;;;;;10.60;1.97;;;11.20;99.90;;;;;;5057661;28;20239;-84
2023/03/25 10:48:26;;;;;;;7.57;1.50;;;11.30;99.90;;;;;;5055893;28;20172;-84
2023/03/25 10:51:01;;;;;;;7.70;2.07;;;11.30;99.90;;;;;;5057477;28;20167;-85
2023/03/25 10:53:28;;;;;;;9.33;1.53;;;11.40;99.90;;;;;;5058968;28;20179;-83
2023/03/25 10:56:24;;;;;;;7.50;1.50;;;11.40;99.90;;;;;;5060539;28;20171;-83
2023/03/25 10:58:56;;;;;;;6.13;1.50;;;11.40;99.90;;;;;;5060560;28;20247;-83
2023/03/25 11:01:35;;;;;;;6.93;1.60;;;11.30;99.90;;;;;;5060664;28;20262;-84
2023/03/25 11:04:06;;;;;;;5.23;1.57;;;11.20;99.90;;;;;;5060880;28;20172;-83
2023/03/25 11:06:40;;;;;;;9.57;2.30;;;11.10;99.90;;;;;;5060529;28;20174;-84
2023/03/25 11:09:22;;;;;;;7.03;1.50;;;11.00;99.90;;;;;;5059267;28;20250;-82
2023/03/25 11:11:48;;;;;;;8.03;2.30;;;10.90;99.90;;;;;;5060563;28;20203;-84
2023/03/25 11:14:16;;;;;;;11.87;2.00;;;10.90;99.90;;;;;;5061606;28;20250;-84
2023/03/25 11:16:45;;;;;;;7.77;1.63;;;10.80;99.90;;;;;;5060491;28;20670;-84
2023/03/25 11:19:26;;;;;;;7.60;2.00;;;10.70;99.90;;;;;;5059817;28;20172;-84
2023/03/25 11:21:57;;;;;;;12.73;2.47;;;10.50;99.90;;;;;;5059134;28;20249;-84
2023/03/25 11:24:30;;;;;;;7.93;1.90;;;10.50;99.90;;;;;;5057152;28;20539;-85
2023/03/25 11:26:56;;;;;;;8.37;2.10;;;10.40;99.90;;;;;;5057214;28;20544;-83
2023/03/25 11:29:25;;;;;;;10.33;2.37;;;10.30;99.90;;;;;;5058466;28;20256;-83
2023/03/25 11:32:03;;;;;;;6.40;1.90;;;10.40;99.90;;;;;;5058964;28;20207;-84
2023/03/25 11:34:29;;;;;;;11.80;2.07;;;10.30;99.90;;;;;;5058027;28;20186;-84
2023/03/25 11:36:58;;;;;;;9.87;2.50;;;10.20;99.90;;;;;;5058014;28;20182;-84
2023/03/25 11:39:34;;;;;;;7.57;1.87;;;10.30;99.90;;;;;;5060559;28;20171;-83
2023/03/25 11:42:12;;;;;;;12.83;1.70;;;10.40;99.90;;;;;;5058976;28;20205;-83
2023/03/25 11:44:38;;;;;;;7.70;1.33;;;10.50;99.90;;;;;;5060416;28;20163;-83
2023/03/25 11:47:06;;;;;;;8.87;1.93;;;10.70;99.90;;;;;;5061568;28;20171;-84
2023/03/25 11:49:37;;;;;;;5.67;1.43;;;10.80;99.90;;;;;;5060328;28;20172;-84
2023/03/25 11:52:05;;;;;;;7.60;1.77;;;10.80;99.90;;;;;;5060479;28;20203;-83
2023/03/25 11:54:33;;;;;;;9.13;2.50;;;10.80;99.90;;;;;;5065241;28;20206;-83
2023/03/25 11:57:01;;;;;;;11.90;1.80;;;10.90;99.90;;;;;;5068346;28;20206;-84
2023/03/25 11:59:36;;;;;;;4.73;1.60;;;10.90;99.90;;;;;;5060034;28;20171;-84
2023/03/25 12:02:16;;;;;;;5.13;1.27;;;10.90;99.90;;;;;;5059605;28;20252;-84
2023/03/25 12:05:02;;;;;;;3.30;1.00;;;10.90;99.90;;;;;;5060603;28;20163;-84
2023/03/25 12:07:28;;;;;;;5.97;1.43;;;10.80;99.90;;;;;;5059173;28;20651;-83
2023/03/25 12:10:02;;;;;;;4.07;1.10;;;10.80;99.90;;;;;;5060791;28;20171;-84
2023/03/25 12:12:53;;;;;;;5.17;1.10;;;10.80;99.90;;;;;;5059875;28;20215;-84
2023/03/25 12:15:22;;;;;;;6.43;1.37;;;10.80;99.90;;;;;;5059809;28;20172;-84
2023/03/25 12:18:20;;;;;;;5.70;1.30;;;10.90;99.90;;;;;;5061248;28;20284;-84
2023/03/25 12:21:03;;;;;;;6.60;1.30;;;10.90;99.90;;;;;;5060385;28;20596;-82
2023/03/25 12:24:07;;;;;;;5.27;1.30;;;11.10;99.90;;;;;;5058641;28;20211;-83
2023/03/25 12:26:48;;;;;;;6.07;1.27;;;11.20;99.90;;;;;;5059244;28;20164;-83
2023/03/25 12:29:52;;;;;;;3.13;1.10;;;11.40;99.90;;;;;;5060050;28;20190;-82
2023/03/25 12:32:40;;;;;;;7.07;1.67;;;11.50;99.90;;;;;;5049243;28;20230;-83
2023/03/25 12:35:23;;;;;;;4.37;1.80;;;11.40;99.90;;;;;;5058622;28;20214;-83
2023/03/25 12:38:22;;;;;;;6.97;1.37;;;11.50;99.90;;;;;;5058316;28;20195;-82
2023/03/25 12:40:56;;;;;;;10.47;2.17;;;11.50;99.90;;;;;;5057990;28;20214;-83
2023/03/25 12:43:32;;;;;;;5.87;1.67;;;11.70;99.90;;;;;;5058122;28;20677;-84
2023/03/25 12:46:44;;;;;;;7.67;2.03;;;11.70;99.90;;;;;;5058002;28;20171;-84
2023/03/25 12:49:31;;;;;;;6.07;1.80;;;11.80;99.90;;;;;;5036167;28;20241;-83
2023/03/25 12:51:56;;;;;;;6.67;1.30;;;11.90;99.90;;;;;;5059085;28;20222;-83
2023/03/25 12:54:37;;;;;;;6.40;1.53;;;12.00;99.90;;;;;;5058948;28;20180;-84
2023/03/25 12:57:38;;;;;;;8.50;1.80;;;12.00;99.90;;;;;;5057840;28;20172;-82
2023/03/25 13:00:19;;;;;;;10.73;1.87;;;12.00;99.90;;;;;;5057790;28;20180;-84
2023/03/25 13:02:45;;;;;;;6.33;1.80;;;11.90;99.90;;;;;;5060252;28;20671;-84
2023/03/25 13:05:35;;;;;;;5.87;2.27;;;11.90;99.90;;;;;;5058108;28;20207;-84
2023/03/25 13:08:26;;;;;;;12.23;2.10;;;11.80;99.90;;;;;;5059233;28;20160;-83
2023/03/25 13:11:05;;;;;;;9.73;1.90;;;11.90;99.90;;;;;;5054785;28;20675;-85
2023/03/25 13:13:33;;;;;;;7.83;1.80;;;11.70;99.90;;;;;;5057754;28;20160;-83
2023/03/25 13:16:08;;;;;;;4.17;1.50;;;11.50;99.90;;;;;;5055200;28;20182;-85
2023/03/25 13:18:54;;;;;;;6.40;1.70;;;11.40;99.90;;;;;;5055645;28;20171;-85